createdAt,value
2023-02-16T05:26:43.533Z,2.40
2023-02-16T05:29:10.602Z,2.73
2023-02-16T05:31:37.798Z,2.67
2023-02-16T05:34:04.929Z,2.90
2023-02-16T05:36:31.944Z,2.60
2023-02-16T05:38:59.237Z,2.47
2023-02-16T05:41:26.281Z,2.60
2023-02-16T05:43:58.873Z,3.50
2023-02-16T05:46:27.804Z,2.83
2023-02-16T05:48:54.899Z,2.90
2023-02-16T05:51:22.123Z,3.00
2023-02-16T05:53:49.165Z,2.70
2023-02-16T05:56:17.170Z,2.60
2023-02-16T05:58:44.223Z,3.00
2023-02-16T06:01:11.853Z,2.90
2023-02-16T06:03:39.025Z,3.63
2023-02-16T06:06:06.882Z,3.83
2023-02-16T06:08:34.028Z,3.73
2023-02-16T06:11:01.039Z,3.37
2023-02-16T06:13:28.238Z,4.03
2023-02-16T06:15:57.710Z,4.37
2023-02-16T06:18:25.679Z,3.73
2023-02-16T06:20:52.788Z,3.47
2023-02-16T06:23:19.798Z,3.93
2023-02-16T06:25:50.796Z,3.47
2023-02-16T06:28:17.949Z,3.43
2023-02-16T06:30:45.062Z,3.07
2023-02-16T06:33:12.131Z,2.60
2023-02-16T06:35:39.141Z,3.00
2023-02-16T06:38:06.172Z,3.33
2023-02-16T06:40:33.313Z,3.10
2023-02-16T06:43:00.350Z,3.30
2023-02-16T06:45:27.323Z,3.60
2023-02-16T06:47:54.341Z,3.50
2023-02-16T06:50:21.516Z,4.00
2023-02-16T06:52:51.069Z,3.90
2023-02-16T06:55:18.222Z,4.07
2023-02-16T06:57:45.205Z,3.20
2023-02-16T07:00:12.833Z,3.47
2023-02-16T07:02:39.838Z,3.70
2023-02-16T07:05:06.998Z,3.27
2023-02-16T07:07:33.999Z,3.30
2023-02-16T07:10:02.880Z,3.33
2023-02-16T07:12:31.184Z,3.47
2023-02-16T07:14:58.229Z,4.83
2023-02-16T07:17:25.246Z,4.50
2023-02-16T07:19:52.367Z,4.17
2023-02-16T07:22:19.384Z,3.50
2023-02-16T07:24:46.401Z,4.20
2023-02-16T07:27:13.468Z,3.57
2023-02-16T07:29:40.604Z,4.10
2023-02-16T07:32:08.530Z,2.93
2023-02-16T07:34:35.616Z,3.93
2023-02-16T07:37:02.605Z,4.27
2023-02-16T07:39:30.894Z,4.47
2023-02-16T07:41:58.033Z,4.03
2023-02-16T07:44:26.596Z,4.07
2023-02-16T07:46:53.587Z,4.67
2023-02-16T07:49:20.683Z,5.40
2023-02-16T07:51:47.722Z,5.93
2023-02-16T07:54:14.800Z,6.60
2023-02-16T07:56:41.797Z,4.30
2023-02-16T07:59:08.853Z,5.60
2023-02-16T08:01:35.838Z,5.30
2023-02-16T08:04:02.884Z,5.30
2023-02-16T08:06:30.026Z,3.80
2023-02-16T08:08:57.544Z,3.33
2023-02-16T08:11:25.399Z,3.17
2023-02-16T08:13:52.890Z,3.30
2023-02-16T08:16:22.900Z,3.40
2023-02-16T08:18:50.939Z,2.77
2023-02-16T08:21:23.729Z,3.30
2023-02-16T08:23:59.716Z,2.93
2023-02-16T08:26:29.222Z,3.00
2023-02-16T08:28:58.031Z,2.60
2023-02-16T08:31:30.048Z,3.00
2023-02-16T08:34:00.597Z,3.90
2023-02-16T08:36:32.464Z,3.30
2023-02-16T08:39:01.128Z,3.23
2023-02-16T08:41:33.691Z,3.43
2023-02-16T08:44:01.374Z,3.50
2023-02-16T08:46:29.909Z,3.97
2023-02-16T08:48:59.802Z,3.53
2023-02-16T08:51:29.385Z,3.63
2023-02-16T08:53:58.720Z,3.67
2023-02-16T08:56:26.546Z,3.50
2023-02-16T08:58:53.525Z,3.60
2023-02-16T09:01:20.701Z,3.17
2023-02-16T09:03:48.648Z,3.17
2023-02-16T09:06:17.739Z,3.33
2023-02-16T09:08:46.669Z,3.00
2023-02-16T09:11:15.915Z,3.47
2023-02-16T09:13:43.706Z,4.17
2023-02-16T09:16:14.534Z,2.97
2023-02-16T09:18:42.815Z,3.00
2023-02-16T09:21:15.131Z,2.80
2023-02-16T09:23:50.177Z,3.10
2023-02-16T09:26:19.531Z,2.70
2023-02-16T09:28:47.427Z,3.03
2023-02-16T09:31:25.622Z,3.33
2023-02-16T09:33:56.271Z,3.70
2023-02-16T09:36:23.632Z,3.17
2023-02-16T09:38:51.548Z,3.20
2023-02-16T09:41:37.048Z,3.20
2023-02-16T09:44:25.970Z,3.07
2023-02-16T09:46:56.824Z,2.97
2023-02-16T09:49:33.485Z,2.90
2023-02-16T09:52:24.089Z,3.05
2023-02-16T09:54:57.846Z,3.43
2023-02-16T09:57:49.199Z,3.90
2023-02-16T10:00:34.523Z,3.73
2023-02-16T10:03:09.565Z,3.13
2023-02-16T10:05:56.825Z,3.13
2023-02-16T10:08:31.476Z,2.90
2023-02-16T10:11:07.453Z,3.00
2023-02-16T10:13:53.579Z,2.50
2023-02-16T10:16:28.543Z,2.70
2023-02-16T10:18:56.751Z,2.90
2023-02-16T10:21:28.262Z,3.50
2023-02-16T10:24:00.769Z,2.57
2023-02-16T10:26:39.796Z,2.40
2023-02-16T10:29:12.383Z,2.90
2023-02-16T10:31:41.980Z,2.83
2023-02-16T10:34:28.099Z,3.30
2023-02-16T10:37:40.573Z,3.67
2023-02-16T10:40:30.319Z,2.70
2023-02-16T10:43:07.355Z,2.47
2023-02-16T10:45:51.916Z,4.47
2023-02-16T10:48:23.850Z,3.80
2023-02-16T10:51:03.459Z,3.70
2023-02-16T10:53:44.246Z,3.13
2023-02-16T10:56:33.185Z,3.27
2023-02-16T10:59:05.443Z,3.60
2023-02-16T11:01:38.429Z,3.67
2023-02-16T11:04:06.239Z,4.35
2023-02-16T11:06:36.548Z,3.10
2023-02-16T11:09:04.634Z,3.70
2023-02-16T11:11:38.849Z,3.40
2023-02-16T11:14:22.120Z,3.50
2023-02-16T11:17:02.215Z,3.97
2023-02-16T11:19:32.482Z,3.83
2023-02-16T11:21:59.942Z,3.80
2023-02-16T11:24:38.326Z,3.90
2023-02-16T11:27:14.345Z,3.13
2023-02-16T11:29:41.654Z,3.50
2023-02-16T11:32:14.901Z,3.23
2023-02-16T11:34:50.360Z,2.80
2023-02-16T11:37:24.552Z,3.30
2023-02-16T11:39:56.419Z,3.70
2023-02-16T11:42:33.382Z,3.17
2023-02-16T11:45:02.080Z,3.70
2023-02-16T11:47:37.726Z,3.10
2023-02-16T11:50:17.212Z,3.47
2023-02-16T11:52:45.260Z,4.20
2023-02-16T11:55:21.844Z,3.73
2023-02-16T11:57:49.272Z,4.28
2023-02-16T12:00:22.147Z,4.13
2023-02-16T12:03:17.016Z,5.20
2023-02-16T12:06:02.458Z,4.83
2023-02-16T12:08:38.579Z,4.27
2023-02-16T12:11:11.600Z,4.25
2023-02-16T12:13:50.397Z,3.60
2023-02-16T12:16:31.458Z,3.80
2023-02-16T12:19:17.001Z,3.93
2023-02-16T12:22:09.972Z,3.70
2023-02-16T12:24:55.700Z,2.97
2023-02-16T12:27:39.801Z,5.50
2023-02-16T12:30:12.604Z,4.43
2023-02-16T12:33:18.586Z,4.03
2023-02-16T12:35:54.622Z,3.90
2023-02-16T12:38:30.151Z,3.70
2023-02-16T12:41:15.658Z,3.90
2023-02-16T12:43:47.516Z,4.50
2023-02-16T12:46:23.782Z,5.10
2023-02-16T12:48:57.485Z,5.07
2023-02-16T12:51:38.747Z,4.27
2023-02-16T12:54:57.906Z,4.27
2023-02-16T12:57:30.883Z,4.32
2023-02-16T13:00:04.525Z,4.57
2023-02-16T13:02:43.610Z,4.90
2023-02-16T13:05:18.328Z,4.60
2023-02-16T13:07:50.369Z,4.33
2023-02-16T13:10:30.953Z,5.30
2023-02-16T13:13:12.775Z,4.47
2023-02-16T13:15:46.315Z,4.10
2023-02-16T13:18:42.218Z,6.10
2023-02-16T13:21:11.174Z,4.43
2023-02-16T13:23:52.088Z,4.50
2023-02-16T13:26:19.121Z,4.80
2023-02-16T13:29:23.187Z,6.00
2023-02-16T13:32:05.874Z,4.67
2023-02-16T13:35:10.566Z,4.83
2023-02-16T13:37:57.162Z,4.90
2023-02-16T13:40:35.530Z,4.20
2023-02-16T13:43:12.530Z,4.67
2023-02-16T13:48:22.294Z,5.00
2023-02-16T13:50:58.655Z,5.20
2023-02-16T13:53:30.156Z,5.20
2023-02-16T13:56:22.387Z,5.57
2023-02-16T13:58:53.332Z,6.50
2023-02-16T14:01:32.503Z,5.53
2023-02-16T14:04:02.935Z,6.13
2023-02-16T14:06:37.211Z,6.10
2023-02-16T14:09:16.196Z,5.60
2023-02-16T14:11:55.146Z,6.27
2023-02-16T14:14:43.102Z,5.17
2023-02-16T14:17:16.341Z,5.60
2023-02-16T14:19:58.399Z,5.50
2023-02-16T14:22:59.937Z,5.97
2023-02-16T14:25:27.689Z,6.83
2023-02-16T14:27:59.358Z,5.67
2023-02-16T14:30:51.958Z,5.57
2023-02-16T14:33:23.760Z,5.43
2023-02-16T14:35:59.850Z,6.10
2023-02-16T14:38:42.603Z,6.23
2023-02-16T14:41:23.878Z,6.30
2023-02-16T14:44:11.938Z,7.50
2023-02-16T14:46:57.284Z,5.83
2023-02-16T14:49:50.486Z,5.03
2023-02-16T14:52:46.065Z,7.27
2023-02-16T14:55:40.317Z,7.43
2023-02-16T14:58:30.170Z,8.40
2023-02-16T15:01:11.415Z,6.40
2023-02-16T15:03:45.516Z,5.73
2023-02-16T15:06:38.382Z,5.87
2023-02-16T15:09:24.828Z,6.87
2023-02-16T15:12:16.318Z,7.93
2023-02-16T15:14:48.508Z,7.47
2023-02-16T15:17:21.781Z,6.77
2023-02-16T15:19:48.873Z,6.90
2023-02-16T15:22:21.620Z,6.63
2023-02-16T15:25:04.586Z,6.87
2023-02-16T15:27:35.307Z,7.33
2023-02-16T15:30:23.154Z,7.77
2023-02-16T15:32:56.426Z,7.60
2023-02-16T15:35:29.807Z,7.73
2023-02-16T15:38:08.799Z,7.47
2023-02-16T15:40:36.890Z,7.40
2023-02-16T15:43:33.985Z,7.47
2023-02-16T15:46:03.916Z,7.10
2023-02-16T15:48:37.113Z,7.90
2023-02-16T15:51:26.825Z,7.53
2023-02-16T15:54:02.877Z,6.30
2023-02-16T15:56:47.433Z,7.40
2023-02-16T15:59:20.277Z,7.60
2023-02-16T16:01:48.079Z,7.77
2023-02-16T16:04:23.352Z,7.53
2023-02-16T16:06:51.845Z,7.07
2023-02-16T16:09:37.349Z,8.60
2023-02-16T16:12:08.441Z,7.40
2023-02-16T16:14:39.923Z,7.07
2023-02-16T16:17:12.897Z,7.50
2023-02-16T16:19:40.039Z,8.80
2023-02-16T16:22:33.152Z,7.37
2023-02-16T16:25:01.303Z,8.43
2023-02-16T16:27:38.318Z,7.90
2023-02-16T16:30:20.763Z,8.17
2023-02-16T16:32:48.046Z,7.70
2023-02-16T16:35:23.354Z,7.23
2023-02-16T16:37:52.843Z,8.07
2023-02-16T16:40:22.596Z,7.00
2023-02-16T16:43:06.899Z,7.10
2023-02-16T16:45:48.642Z,7.30
2023-02-16T16:48:25.454Z,7.13
2023-02-16T16:51:11.825Z,6.38
2023-02-16T16:53:44.263Z,7.47
2023-02-16T16:56:13.623Z,6.27
2023-02-16T16:58:40.930Z,6.90
2023-02-16T17:01:10.146Z,7.03
2023-02-16T17:03:38.669Z,8.63
2023-02-16T17:06:07.011Z,9.73
2023-02-16T17:08:34.385Z,8.93
2023-02-16T17:11:02.918Z,7.47
2023-02-16T17:13:30.980Z,7.07
2023-02-16T17:16:02.871Z,8.00
2023-02-16T17:18:29.996Z,8.10
2023-02-16T17:20:57.066Z,7.93
2023-02-16T17:23:24.143Z,7.50
2023-02-16T17:25:51.298Z,9.17
2023-02-16T17:28:19.818Z,9.87
2023-02-16T17:30:47.182Z,9.93
2023-02-16T17:33:14.278Z,10.77
2023-02-16T17:35:43.567Z,10.97
2023-02-16T17:38:14.157Z,10.90
2023-02-16T17:40:41.937Z,8.47
2023-02-16T17:43:13.432Z,9.90
2023-02-16T17:45:40.989Z,9.30
2023-02-16T17:48:08.082Z,8.00
2023-02-16T17:50:35.380Z,8.93
2023-02-16T17:53:02.472Z,9.97
2023-02-16T17:55:29.615Z,8.37
2023-02-16T17:57:58.245Z,10.00
2023-02-16T18:00:25.393Z,9.40
2023-02-16T18:02:52.509Z,9.50
2023-02-16T18:05:19.621Z,8.50
2023-02-16T18:07:46.691Z,10.53
2023-02-16T18:10:31.088Z,9.80
2023-02-16T18:12:58.146Z,8.43
2023-02-16T18:15:25.168Z,12.93
2023-02-16T18:17:54.449Z,9.33
2023-02-16T18:20:22.527Z,11.03
2023-02-16T18:22:49.640Z,12.73
2023-02-16T18:25:16.785Z,10.23
2023-02-16T18:27:44.160Z,10.00
2023-02-16T18:30:13.126Z,8.27
2023-02-16T18:32:41.995Z,9.67
2023-02-16T18:35:10.870Z,10.43
2023-02-16T18:37:38.233Z,11.23
2023-02-16T18:40:08.667Z,8.73
2023-02-16T18:42:36.882Z,11.03
2023-02-16T18:45:05.488Z,10.67
2023-02-16T18:47:32.625Z,10.17
2023-02-16T18:49:59.906Z,10.13
2023-02-16T18:52:26.918Z,9.80
2023-02-16T18:54:53.941Z,9.07
2023-02-16T18:57:22.793Z,8.73
2023-02-16T18:59:50.011Z,9.10
2023-02-16T19:02:17.178Z,10.30
2023-02-16T19:04:44.195Z,9.70
2023-02-16T19:07:11.314Z,10.73
2023-02-16T19:09:38.322Z,11.23
2023-02-16T19:12:05.618Z,8.80
2023-02-16T19:14:32.675Z,9.70
2023-02-16T19:16:59.664Z,9.53
2023-02-16T19:19:26.673Z,10.93
2023-02-16T19:21:53.769Z,10.30
2023-02-16T19:24:20.812Z,10.90
2023-02-16T19:26:47.874Z,10.87
2023-02-16T19:29:14.930Z,10.90
2023-02-16T19:31:42.025Z,11.03
2023-02-16T19:34:09.242Z,10.40
2023-02-16T19:36:36.391Z,9.23
2023-02-16T19:39:04.288Z,8.80
2023-02-16T19:41:34.321Z,7.77
2023-02-16T19:44:02.138Z,7.20
2023-02-16T19:46:32.992Z,8.07
2023-02-16T19:49:00.376Z,8.07
2023-02-16T19:51:27.665Z,7.20
2023-02-16T19:53:54.694Z,8.37
2023-02-16T19:56:25.462Z,8.13
2023-02-16T19:58:53.537Z,9.40
2023-02-16T20:01:24.120Z,8.17
2023-02-16T20:03:52.218Z,9.07
2023-02-16T20:06:29.256Z,8.70
2023-02-16T20:08:56.738Z,7.97
2023-02-16T20:11:25.905Z,8.23
2023-02-16T20:13:53.398Z,8.43
2023-02-16T20:16:21.601Z,9.33
2023-02-16T20:18:49.191Z,14.13
2023-02-16T20:21:20.263Z,13.50
2023-02-16T20:23:48.540Z,12.40
2023-02-16T20:26:21.949Z,9.57
2023-02-16T20:28:50.099Z,9.43
2023-02-16T20:31:24.714Z,9.50
2023-02-16T20:33:56.407Z,9.90
2023-02-16T20:36:23.659Z,10.03
2023-02-16T20:38:50.900Z,9.40
2023-02-16T20:41:20.960Z,9.20
2023-02-16T20:43:48.213Z,8.87
2023-02-16T20:46:16.460Z,11.03
2023-02-16T20:48:46.082Z,10.23
2023-02-16T20:51:13.684Z,11.23
2023-02-16T20:53:41.359Z,10.50
2023-02-16T20:56:18.683Z,11.23
2023-02-16T20:58:47.525Z,8.77
2023-02-16T21:01:23.816Z,9.20
2023-02-16T21:03:52.091Z,9.20
2023-02-16T21:06:20.059Z,8.07
2023-02-16T21:08:47.571Z,7.97
2023-02-16T21:11:15.741Z,9.23
2023-02-16T21:13:43.219Z,7.60
2023-02-16T21:16:11.170Z,8.50
2023-02-16T21:18:40.483Z,8.43
2023-02-16T21:21:09.436Z,9.10
2023-02-16T21:23:36.674Z,8.30
2023-02-16T21:26:05.998Z,8.60
2023-02-16T21:28:33.707Z,8.17
2023-02-16T21:31:10.116Z,8.67
2023-02-16T21:33:38.429Z,8.63
2023-02-16T21:36:06.566Z,8.03
2023-02-16T21:38:35.677Z,8.87
2023-02-16T21:41:27.742Z,10.37
2023-02-16T21:44:02.658Z,8.70
2023-02-16T21:46:39.185Z,7.93
2023-02-16T21:49:18.288Z,7.65
2023-02-16T21:51:47.093Z,9.27
2023-02-16T21:54:39.265Z,7.47
2023-02-16T21:57:06.308Z,9.17
2023-02-16T21:59:34.034Z,8.57
2023-02-16T22:02:01.019Z,7.90
2023-02-16T22:04:28.052Z,8.33
2023-02-16T22:06:56.192Z,8.63
2023-02-16T22:09:23.851Z,7.70
2023-02-16T22:11:51.776Z,7.60
2023-02-16T22:14:19.887Z,7.77
2023-02-16T22:16:48.083Z,7.67
2023-02-16T22:19:17.386Z,7.67
2023-02-16T22:21:46.429Z,7.60
2023-02-16T22:24:15.296Z,7.47
2023-02-16T22:26:42.716Z,6.50
2023-02-16T22:29:10.763Z,7.00
2023-02-16T22:31:38.507Z,8.00
2023-02-16T22:34:12.583Z,6.77
2023-02-16T22:36:40.345Z,7.40
2023-02-16T22:39:07.858Z,7.20
2023-02-16T22:41:35.832Z,6.67
2023-02-16T22:44:03.017Z,7.83
2023-02-16T22:46:30.644Z,6.67
2023-02-16T22:48:59.669Z,6.43
2023-02-16T22:51:29.438Z,5.93
2023-02-16T22:54:01.162Z,5.83
2023-02-16T22:56:29.835Z,6.97
2023-02-16T22:58:58.234Z,6.20
2023-02-16T23:01:27.437Z,6.27
2023-02-16T23:03:59.121Z,6.27
2023-02-16T23:06:28.872Z,6.50
2023-02-16T23:08:58.948Z,6.73
2023-02-16T23:11:27.190Z,7.47
2023-02-16T23:13:54.366Z,6.23
2023-02-16T23:16:24.228Z,6.20
2023-02-16T23:18:51.510Z,6.70
2023-02-16T23:21:22.290Z,6.37
2023-02-16T23:23:51.758Z,6.90
2023-02-16T23:26:19.891Z,6.93
2023-02-16T23:28:51.174Z,6.40
2023-02-16T23:31:18.710Z,5.63
2023-02-16T23:33:46.309Z,5.83
2023-02-16T23:36:13.315Z,7.20
2023-02-16T23:38:40.344Z,6.80
2023-02-16T23:41:11.835Z,6.23
2023-02-16T23:43:38.870Z,7.77
2023-02-16T23:46:06.661Z,6.83
2023-02-16T23:48:34.501Z,6.63
2023-02-16T23:51:01.663Z,7.37
2023-02-16T23:53:29.131Z,7.10
2023-02-16T23:56:01.412Z,6.73
2023-02-16T23:58:30.053Z,6.13
